Time;durP1;ratioP1;P1;durP2;ratioP2;P2;SDS_P1;SDS_P2;PMS_P1;PMS_P2;Temp;Humidity;BMP_temperature;BMP_pressure;BME280_temperature;BME280_humidity;BME280_pressure;Samples;Min_cycle;Max_cycle;Signal;HPM_P1;HPM_P2
2021/12/24 00:00:15;;;;;;;10.07;8.07;;;;;;;;;;5109393;28;20191;-78
2021/12/24 00:02:42;;;;;;;11.20;8.47;;;;;;;;;;5115066;28;20194;-78
2021/12/24 00:05:11;;;;;;;14.70;9.73;;;;;;;;;;5115392;28;20223;-78
2021/12/24 00:07:39;;;;;;;17.53;11.17;;;;;;;;;;5115295;28;20246;-78
2021/12/24 00:10:09;;;;;;;14.47;9.70;;;;;;;;;;5114904;28;20254;-77
2021/12/24 00:12:40;;;;;;;13.73;9.90;;;;;;;;;;5114749;28;20472;-77
2021/12/24 00:15:23;;;;;;;17.30;11.87;;;;;;;;;;5114236;28;20575;-77
2021/12/24 00:17:52;;;;;;;19.70;15.30;;;;;;;;;;5094764;28;20616;-78
2021/12/24 00:35:04;;;;;;;12.37;9.90;;;;;;;;;;5151166;27;20609;-77
2021/12/24 00:37:10;;;;;;;8.30;7.00;;;;;;;;;;5150839;27;20231;-77
2021/12/24 00:39:46;;;;;;;9.53;7.37;;;;;;;;;;5150673;27;20215;-77
2021/12/24 00:42:14;;;;;;;9.77;6.97;;;;;;;;;;5167794;27;20205;-77
2021/12/24 00:44:41;;;;;;;7.07;6.37;;;;;;;;;;5171465;27;20572;-77
2021/12/24 00:47:08;;;;;;;9.20;7.20;;;;;;;;;;5171354;27;20189;-77
2021/12/24 00:49:35;;;;;;;13.47;7.47;;;;;;;;;;5171416;27;20232;-77
2021/12/24 00:52:19;;;;;;;11.23;8.23;;;;;;;;;;5390598;22;20203;-79
2021/12/24 00:55:05;;;;;;;12.20;9.80;;;;;;;;;;5050094;28;20196;-78
2021/12/24 04:26:21;;;;;;;11.77;10.50;;;;;;;;;;4925013;29;20202;-77
2021/12/24 04:28:48;;;;;;;13.07;10.23;;;;;;;;;;4928336;29;20265;-76
2021/12/24 04:31:16;;;;;;;14.10;9.10;;;;;;;;;;4934669;29;20234;-77
2021/12/24 04:33:47;;;;;;;12.60;6.80;;;;;;;;;;4935068;29;20619;-77
2021/12/24 04:36:35;;;;;;;8.17;6.47;;;;;;;;;;4934731;29;20186;-77
2021/12/24 04:39:31;;;;;;;7.10;5.70;;;;;;;;;;4934960;29;20198;-77
2021/12/24 05:01:10;;;;;;;10.50;7.00;;;;;;;;;;4934596;29;20189;-77
2021/12/24 05:01:39;;;;;;;13.27;9.77;;;;;;;;;;4936468;28;20273;-77
2021/12/24 05:04:09;;;;;;;16.97;12.13;;;;;;;;;;4930205;29;20269;-77
2021/12/24 05:06:40;;;;;;;16.63;12.17;;;;;;;;;;4916042;29;20542;-77
2021/12/24 05:09:10;;;;;;;24.73;15.03;;;;;;;;;;4917453;29;20235;-77
2021/12/24 05:11:39;;;;;;;15.00;11.10;;;;;;;;;;4918877;29;20199;-77
2021/12/24 05:14:06;;;;;;;16.60;11.67;;;;;;;;;;4919146;29;20646;-77
2021/12/24 05:16:44;;;;;;;35.07;24.87;;;;;;;;;;4919087;29;20263;-78
2021/12/24 05:21:56;;;;;;;20.30;14.20;;;;;;;;;;4929076;29;20241;-77
2021/12/24 05:24:27;;;;;;;18.00;13.07;;;;;;;;;;4937908;29;20293;-77
2021/12/24 05:26:57;;;;;;;16.20;11.33;;;;;;;;;;4937677;29;20268;-77
2021/12/24 05:29:25;;;;;;;15.80;9.40;;;;;;;;;;4937703;29;20191;-77
2021/12/24 05:31:52;;;;;;;10.83;7.67;;;;;;;;;;4937481;29;20209;-77
2021/12/24 05:34:20;;;;;;;10.40;7.93;;;;;;;;;;4937453;29;20242;-77
2021/12/24 05:36:48;;;;;;;12.00;9.03;;;;;;;;;;4937542;29;20202;-77
2021/12/24 05:39:17;;;;;;;7.27;6.27;;;;;;;;;;4937412;29;20497;-77
2021/12/24 05:41:45;;;;;;;9.93;7.23;;;;;;;;;;4939750;28;20321;-77
2021/12/24 05:44:16;;;;;;;9.93;6.50;;;;;;;;;;4975660;28;20224;-77
2021/12/24 05:46:45;;;;;;;9.37;6.43;;;;;;;;;;4975699;28;20488;-77
2021/12/24 05:49:13;;;;;;;7.80;6.23;;;;;;;;;;4968259;28;20201;-77
2021/12/24 05:51:42;;;;;;;7.10;6.20;;;;;;;;;;4960971;28;20268;-77
2021/12/24 05:54:10;;;;;;;7.70;5.50;;;;;;;;;;4955673;28;20456;-77
2021/12/24 05:56:38;;;;;;;9.43;7.20;;;;;;;;;;4955944;29;20629;-77
2021/12/24 05:59:06;;;;;;;10.47;8.60;;;;;;;;;;4969975;28;20213;-77
2021/12/24 06:01:35;;;;;;;11.90;8.43;;;;;;;;;;4952648;28;20281;-77
2021/12/24 06:04:02;;;;;;;11.07;8.13;;;;;;;;;;4936766;29;20699;-77
2021/12/24 06:06:29;;;;;;;9.70;8.70;;;;;;;;;;4947129;28;20202;-77
2021/12/24 06:08:57;;;;;;;31.30;20.50;;;;;;;;;;4950375;28;20206;-77
2021/12/24 06:11:24;;;;;;;217.37;105.10;;;;;;;;;;4954066;28;20448;-78
2021/12/24 06:13:55;;;;;;;125.33;70.30;;;;;;;;;;4951846;28;20202;-77
2021/12/24 06:16:22;;;;;;;42.57;27.33;;;;;;;;;;4951272;28;20467;-77
2021/12/24 06:18:51;;;;;;;18.27;12.37;;;;;;;;;;4949960;28;20500;-77
2021/12/24 06:21:18;;;;;;;12.87;9.40;;;;;;;;;;4952653;28;20651;-77
2021/12/24 06:23:48;;;;;;;11.47;9.20;;;;;;;;;;4955459;28;20230;-77
2021/12/24 06:26:16;;;;;;;11.20;9.63;;;;;;;;;;4951072;28;20285;-77
2021/12/24 06:28:43;;;;;;;15.23;9.97;;;;;;;;;;4951177;28;20674;-77
2021/12/24 06:31:10;;;;;;;12.37;9.00;;;;;;;;;;4951325;28;20454;-77
2021/12/24 06:33:38;;;;;;;14.70;10.10;;;;;;;;;;4952026;28;20437;-78
2021/12/24 06:36:12;;;;;;;12.67;9.73;;;;;;;;;;4950407;28;20485;-77
2021/12/24 06:38:39;;;;;;;14.63;8.97;;;;;;;;;;4950902;28;20222;-77
2021/12/24 06:41:09;;;;;;;13.30;10.00;;;;;;;;;;4950491;28;20591;-77
2021/12/24 06:43:36;;;;;;;26.47;17.90;;;;;;;;;;4952123;28;20227;-77
2021/12/24 06:46:10;;;;;;;29.40;20.60;;;;;;;;;;4950841;28;20233;-77
2021/12/24 06:48:37;;;;;;;28.47;20.73;;;;;;;;;;4950780;28;20746;-77
2021/12/24 06:51:06;;;;;;;41.17;28.40;;;;;;;;;;4949295;28;20317;-78
2021/12/24 06:53:35;;;;;;;32.63;20.27;;;;;;;;;;4952190;28;20221;-78
2021/12/24 06:56:02;;;;;;;79.43;45.70;;;;;;;;;;4952763;28;20205;-77
2021/12/24 06:58:31;;;;;;;46.80;28.97;;;;;;;;;;4947150;29;20198;-78
2021/12/24 07:00:58;;;;;;;31.50;19.47;;;;;;;;;;4947700;28;21079;-78
2021/12/24 07:03:25;;;;;;;29.57;21.07;;;;;;;;;;4952797;28;20275;-77
2021/12/24 07:05:53;;;;;;;33.60;22.43;;;;;;;;;;4941806;29;20290;-77
2021/12/24 07:08:21;;;;;;;29.17;23.00;;;;;;;;;;4935738;29;20203;-78
2021/12/24 07:10:48;;;;;;;31.87;21.53;;;;;;;;;;4935717;29;20966;-78
2021/12/24 07:13:16;;;;;;;35.70;26.37;;;;;;;;;;4968572;28;20662;-78
2021/12/24 07:15:43;;;;;;;40.53;25.97;;;;;;;;;;4953202;28;20445;-78
2021/12/24 07:18:10;;;;;;;45.47;33.83;;;;;;;;;;4959702;28;20228;-78
2021/12/24 07:20:38;;;;;;;38.70;29.40;;;;;;;;;;4955785;28;20237;-78
2021/12/24 07:23:05;;;;;;;42.77;30.53;;;;;;;;;;4963775;28;20217;-78
2021/12/24 07:25:34;;;;;;;43.13;29.77;;;;;;;;;;4973503;28;20292;-78
2021/12/24 07:28:02;;;;;;;43.93;32.53;;;;;;;;;;4952179;29;20198;-78
2021/12/24 07:30:30;;;;;;;68.07;45.90;;;;;;;;;;4957225;28;20584;-79
2021/12/24 07:32:58;;;;;;;41.70;30.10;;;;;;;;;;4954190;28;20733;-78
2021/12/24 07:35:25;;;;;;;36.33;26.63;;;;;;;;;;4973611;28;20511;-79
2021/12/24 07:37:53;;;;;;;29.97;21.17;;;;;;;;;;4971005;28;20221;-78
2021/12/24 07:40:20;;;;;;;32.40;19.10;;;;;;;;;;4953926;28;20540;-79
2021/12/24 07:42:49;;;;;;;34.27;24.43;;;;;;;;;;4948643;29;20221;-78
2021/12/24 07:45:18;;;;;;;32.70;23.33;;;;;;;;;;4951814;28;20209;-79
2021/12/24 07:47:55;;;;;;;27.77;20.67;;;;;;;;;;4951617;28;20197;-79
2021/12/24 07:53:06;;;;;;;19.10;14.43;;;;;;;;;;4961318;28;20244;-79
2021/12/24 07:55:34;;;;;;;17.20;12.73;;;;;;;;;;4968293;28;20190;-80
2021/12/24 07:58:02;;;;;;;16.33;12.03;;;;;;;;;;4943943;29;20635;-81
2021/12/24 08:00:30;;;;;;;21.93;15.40;;;;;;;;;;4945058;28;20229;-81
2021/12/24 08:02:58;;;;;;;20.63;14.23;;;;;;;;;;4947205;28;20603;-81
2021/12/24 08:05:26;;;;;;;18.13;14.10;;;;;;;;;;4949078;28;20225;-80
2021/12/24 08:07:55;;;;;;;21.40;16.37;;;;;;;;;;4947320;28;20237;-80
2021/12/24 08:10:24;;;;;;;19.47;14.27;;;;;;;;;;4945698;29;20199;-80
2021/12/24 08:12:52;;;;;;;23.77;15.97;;;;;;;;;;4946776;28;20190;-80
2021/12/24 08:15:21;;;;;;;24.30;18.07;;;;;;;;;;4948035;28;20230;-80
2021/12/24 08:17:48;;;;;;;25.50;17.33;;;;;;;;;;4951198;28;20686;-83
2021/12/24 08:20:21;;;;;;;32.17;19.37;;;;;;;;;;4948938;28;20624;-83
2021/12/24 08:22:49;;;;;;;27.40;16.57;;;;;;;;;;4947076;28;20271;-82
2021/12/24 08:25:18;;;;;;;22.00;14.80;;;;;;;;;;4944455;29;20697;-81
2021/12/24 08:27:46;;;;;;;19.73;13.63;;;;;;;;;;4949389;28;20256;-83
2021/12/24 08:30:14;;;;;;;29.37;18.50;;;;;;;;;;4949120;28;20197;-81
2021/12/24 08:32:43;;;;;;;21.73;17.60;;;;;;;;;;4948391;28;20208;-81
2021/12/24 08:35:14;;;;;;;24.57;17.03;;;;;;;;;;4947778;28;20293;-82
2021/12/24 08:37:42;;;;;;;20.80;14.90;;;;;;;;;;4944033;28;20281;-82
2021/12/24 08:40:11;;;;;;;16.43;14.57;;;;;;;;;;4950356;28;20662;-80
2021/12/24 08:42:38;;;;;;;21.53;16.90;;;;;;;;;;4971321;28;20230;-80
2021/12/24 08:45:06;;;;;;;17.10;13.33;;;;;;;;;;4968863;28;20284;-80
2021/12/24 08:47:33;;;;;;;10.50;8.93;;;;;;;;;;4944050;28;20209;-80
2021/12/24 08:50:02;;;;;;;10.03;8.03;;;;;;;;;;4976734;28;20673;-80
2021/12/24 08:52:29;;;;;;;9.70;7.27;;;;;;;;;;4976683;28;20279;-80
2021/12/24 08:54:56;;;;;;;17.30;10.87;;;;;;;;;;4977040;28;20211;-81
2021/12/24 08:57:24;;;;;;;13.83;10.33;;;;;;;;;;4976491;28;20736;-80
2021/12/24 08:59:51;;;;;;;9.10;6.67;;;;;;;;;;4976618;28;20224;-81
2021/12/24 09:02:18;;;;;;;13.83;8.67;;;;;;;;;;4970110;28;20244;-80
2021/12/24 09:04:46;;;;;;;10.13;7.10;;;;;;;;;;4957248;29;20260;-81
2021/12/24 09:07:14;;;;;;;12.63;8.30;;;;;;;;;;4950583;28;20784;-80
2021/12/24 09:09:41;;;;;;;8.63;6.80;;;;;;;;;;4965863;28;20201;-80
2021/12/24 09:12:09;;;;;;;6.07;5.47;;;;;;;;;;4974924;28;20216;-80
2021/12/24 09:14:37;;;;;;;8.27;6.17;;;;;;;;;;4976255;28;20669;-81
2021/12/24 09:17:05;;;;;;;8.53;6.20;;;;;;;;;;4976091;28;20201;-81
2021/12/24 09:19:34;;;;;;;13.27;6.60;;;;;;;;;;4976206;28;20205;-81
2021/12/24 09:22:01;;;;;;;6.47;5.03;;;;;;;;;;4955584;28;20754;-81
2021/12/24 09:24:31;;;;;;;7.77;5.27;;;;;;;;;;4936359;29;20325;-81
2021/12/24 09:26:59;;;;;;;15.97;13.43;;;;;;;;;;4937293;29;20868;-81
2021/12/24 09:29:27;;;;;;;6.20;5.60;;;;;;;;;;4937575;29;20209;-81
2021/12/24 09:31:55;;;;;;;5.27;4.60;;;;;;;;;;4938144;29;20684;-81
2021/12/24 09:34:22;;;;;;;13.30;9.47;;;;;;;;;;4951075;28;20197;-80
2021/12/24 09:36:49;;;;;;;10.23;7.23;;;;;;;;;;4958117;28;20263;-81
2021/12/24 09:39:17;;;;;;;6.67;6.07;;;;;;;;;;4975826;28;20205;-81
2021/12/24 09:41:48;;;;;;;8.47;5.90;;;;;;;;;;4975606;28;20205;-81
2021/12/24 09:44:16;;;;;;;8.10;5.90;;;;;;;;;;4957270;28;20268;-81
2021/12/24 09:46:43;;;;;;;7.77;5.70;;;;;;;;;;4943647;28;20238;-81
2021/12/24 09:49:11;;;;;;;7.17;5.23;;;;;;;;;;4975924;28;20205;-81
2021/12/24 09:51:40;;;;;;;5.90;5.30;;;;;;;;;;4975858;28;20296;-81
2021/12/24 09:54:10;;;;;;;6.63;4.87;;;;;;;;;;4975165;28;20201;-81
2021/12/24 09:56:38;;;;;;;7.43;4.97;;;;;;;;;;4975237;28;20292;-81
2021/12/24 09:59:07;;;;;;;5.20;4.70;;;;;;;;;;4953858;28;20285;-81
2021/12/24 10:01:40;;;;;;;7.33;5.87;;;;;;;;;;4948664;28;20232;-81
2021/12/24 10:04:09;;;;;;;6.93;5.10;;;;;;;;;;4944068;28;20297;-81
2021/12/24 10:06:42;;;;;;;6.93;5.10;;;;;;;;;;4936709;29;20242;-81
2021/12/24 10:09:11;;;;;;;6.97;5.17;;;;;;;;;;4964731;28;20285;-81
2021/12/24 10:11:47;;;;;;;6.47;5.50;;;;;;;;;;4975591;28;20197;-81
2021/12/24 10:14:17;;;;;;;5.53;4.87;;;;;;;;;;4975259;28;20570;-81
2021/12/24 10:16:46;;;;;;;5.03;4.50;;;;;;;;;;4975337;28;20557;-81
2021/12/24 10:19:14;;;;;;;5.87;3.97;;;;;;;;;;4975186;28;20208;-81
2021/12/24 10:21:43;;;;;;;6.73;5.40;;;;;;;;;;4974914;28;20232;-82
2021/12/24 10:24:16;;;;;;;8.80;4.53;;;;;;;;;;4974969;28;20315;-82
2021/12/24 10:26:49;;;;;;;4.27;3.83;;;;;;;;;;4967648;28;20280;-81
2021/12/24 10:29:20;;;;;;;17.10;13.00;;;;;;;;;;4955554;29;20300;-81
2021/12/24 10:31:49;;;;;;;16.60;11.63;;;;;;;;;;4955883;28;20190;-82
2021/12/24 10:34:22;;;;;;;19.07;10.30;;;;;;;;;;4955463;29;20289;-82
2021/12/24 10:37:12;;;;;;;16.50;12.40;;;;;;;;;;4955356;29;20671;-82
2021/12/24 10:39:47;;;;;;;14.33;9.60;;;;;;;;;;4955406;29;20197;-81
2021/12/24 10:42:17;;;;;;;30.80;27.53;;;;;;;;;;4955075;29;20198;-82
2021/12/24 10:44:50;;;;;;;15.63;12.20;;;;;;;;;;4955193;29;20221;-82
2021/12/24 10:47:19;;;;;;;9.60;8.23;;;;;;;;;;4955202;29;20667;-82
2021/12/24 10:52:59;;;;;;;11.47;9.47;;;;;;;;;;4936580;29;20202;-82
2021/12/24 10:55:30;;;;;;;10.93;7.77;;;;;;;;;;4936008;29;20199;-81
2021/12/24 10:57:59;;;;;;;8.77;7.27;;;;;;;;;;4935821;29;20195;-81
2021/12/24 11:00:29;;;;;;;11.47;7.80;;;;;;;;;;4935794;29;20202;-82
2021/12/24 11:02:59;;;;;;;24.27;15.10;;;;;;;;;;4935982;29;20249;-81
2021/12/24 11:05:38;;;;;;;20.87;14.20;;;;;;;;;;4935717;29;20203;-82
2021/12/24 11:08:07;;;;;;;11.60;9.23;;;;;;;;;;4935947;29;20644;-81
2021/12/24 11:10:37;;;;;;;11.00;8.83;;;;;;;;;;4936052;29;20595;-81
2021/12/24 11:13:11;;;;;;;14.53;9.50;;;;;;;;;;4935545;29;20249;-81
2021/12/24 11:15:42;;;;;;;13.73;10.53;;;;;;;;;;4938177;29;20254;-81
2021/12/24 11:18:14;;;;;;;18.07;14.50;;;;;;;;;;4945913;29;20293;-82
2021/12/24 11:20:45;;;;;;;24.27;17.27;;;;;;;;;;4935250;29;20233;-81
2021/12/24 11:23:14;;;;;;;15.40;13.73;;;;;;;;;;4947187;28;20288;-81
2021/12/24 11:25:42;;;;;;;39.23;27.17;;;;;;;;;;4940421;29;20233;-82
2021/12/24 11:28:12;;;;;;;25.13;18.73;;;;;;;;;;4935628;29;20234;-82
2021/12/24 11:30:43;;;;;;;21.30;16.83;;;;;;;;;;4935636;29;20606;-81
2021/12/24 11:33:16;;;;;;;14.27;11.97;;;;;;;;;;4939130;28;20190;-81
2021/12/24 11:35:48;;;;;;;13.40;9.90;;;;;;;;;;4973608;28;20193;-81
2021/12/24 11:38:18;;;;;;;12.43;10.83;;;;;;;;;;4973903;28;20292;-81
2021/12/24 11:40:47;;;;;;;13.57;10.27;;;;;;;;;;4955317;28;20209;-81
2021/12/24 11:43:14;;;;;;;21.17;14.87;;;;;;;;;;4972956;28;20201;-81
2021/12/24 11:45:43;;;;;;;13.57;11.13;;;;;;;;;;4972785;28;20247;-82
2021/12/24 11:48:10;;;;;;;18.10;14.17;;;;;;;;;;4964380;28;20243;-82
2021/12/24 11:50:38;;;;;;;10.57;9.40;;;;;;;;;;4958309;28;20213;-81
2021/12/24 11:53:10;;;;;;;13.37;10.97;;;;;;;;;;4944056;29;20216;-82
2021/12/24 11:55:39;;;;;;;18.97;15.50;;;;;;;;;;4956730;28;20692;-82
2021/12/24 11:58:09;;;;;;;10.73;9.57;;;;;;;;;;4957783;28;20209;-82
2021/12/24 12:00:39;;;;;;;17.27;14.57;;;;;;;;;;4942615;28;20207;-82
2021/12/24 12:03:09;;;;;;;18.40;13.97;;;;;;;;;;4937870;28;20639;-82
2021/12/24 12:05:39;;;;;;;21.57;16.53;;;;;;;;;;4943422;29;20214;-81
2021/12/24 12:08:36;;;;;;;13.80;11.27;;;;;;;;;;4944725;29;20202;-81
2021/12/24 12:11:09;;;;;;;15.57;11.03;;;;;;;;;;4949203;28;20205;-82
2021/12/24 12:13:44;;;;;;;19.20;16.70;;;;;;;;;;4973292;28;20200;-82
2021/12/24 12:16:13;;;;;;;13.57;11.60;;;;;;;;;;4953925;28;20288;-82
2021/12/24 12:18:48;;;;;;;11.80;10.60;;;;;;;;;;4958318;28;20236;-82
2021/12/24 12:21:21;;;;;;;17.67;14.07;;;;;;;;;;4973074;28;20236;-82
2021/12/24 12:24:56;;;;;;;11.23;9.43;;;;;;;;;;4973858;28;20291;-82
2021/12/24 12:26:43;;;;;;;13.40;10.90;;;;;;;;;;4972852;28;20674;-82
2021/12/24 12:29:22;;;;;;;13.07;11.00;;;;;;;;;;4973044;28;20208;-82
2021/12/24 12:31:53;;;;;;;24.73;20.87;;;;;;;;;;4970403;28;20276;-83
2021/12/24 12:34:50;;;;;;;16.87;14.30;;;;;;;;;;4934680;29;20187;-82
2021/12/24 12:37:18;;;;;;;19.10;13.93;;;;;;;;;;4934797;29;20220;-82
2021/12/24 12:39:46;;;;;;;16.27;12.10;;;;;;;;;;4934194;29;20199;-81
2021/12/24 12:42:16;;;;;;;16.73;12.87;;;;;;;;;;4932016;29;20199;-82
2021/12/24 12:44:45;;;;;;;21.43;16.07;;;;;;;;;;4933860;29;20659;-82
2021/12/24 12:47:15;;;;;;;18.73;15.27;;;;;;;;;;4934476;29;20202;-82
2021/12/24 12:49:42;;;;;;;16.53;13.67;;;;;;;;;;4934557;29;20584;-81
2021/12/24 12:52:20;;;;;;;12.53;11.10;;;;;;;;;;4934592;29;20203;-81
2021/12/24 12:54:49;;;;;;;13.13;11.10;;;;;;;;;;4935662;29;20261;-81
2021/12/24 12:57:28;;;;;;;12.83;11.07;;;;;;;;;;4935125;29;20223;-81
2021/12/24 13:00:27;;;;;;;12.47;10.57;;;;;;;;;;4935686;29;20187;-82
2021/12/24 13:03:14;;;;;;;11.53;10.30;;;;;;;;;;4934733;29;20198;-82
2021/12/24 13:05:59;;;;;;;10.63;8.93;;;;;;;;;;4935330;29;20233;-81
2021/12/24 13:08:30;;;;;;;11.97;9.67;;;;;;;;;;4935470;29;20187;-81
2021/12/24 13:10:59;;;;;;;30.37;19.30;;;;;;;;;;4934067;29;20644;-80
2021/12/24 13:13:26;;;;;;;32.57;22.73;;;;;;;;;;4933473;29;20198;-81
2021/12/24 13:15:54;;;;;;;25.43;16.90;;;;;;;;;;4933299;29;20201;-81
2021/12/24 13:18:27;;;;;;;29.73;18.57;;;;;;;;;;4933460;29;20651;-81
2021/12/24 13:23:46;;;;;;;17.50;13.30;;;;;;;;;;4933577;29;20314;-81
2021/12/24 13:26:17;;;;;;;21.30;15.10;;;;;;;;;;4933512;29;20191;-81
2021/12/24 13:28:58;;;;;;;17.03;13.77;;;;;;;;;;4933884;29;20187;-81
2021/12/24 13:31:27;;;;;;;14.47;11.00;;;;;;;;;;4936473;29;20209;-81
2021/12/24 13:33:55;;;;;;;16.37;12.60;;;;;;;;;;4936721;29;20198;-81
2021/12/24 13:36:23;;;;;;;71.23;44.57;;;;;;;;;;4957531;28;20297;-81
2021/12/24 13:38:52;;;;;;;76.80;51.30;;;;;;;;;;4941484;29;20321;-81
2021/12/24 13:41:20;;;;;;;57.57;37.87;;;;;;;;;;4939916;29;20272;-81
2021/12/24 13:43:47;;;;;;;57.30;36.43;;;;;;;;;;4960281;28;20634;-81
2021/12/24 13:46:15;;;;;;;32.73;23.50;;;;;;;;;;4974074;28;20313;-81
2021/12/24 13:49:09;;;;;;;16.07;11.93;;;;;;;;;;4946506;29;20256;-81
2021/12/24 13:54:33;;;;;;;18.00;12.77;;;;;;;;;;4936329;29;20246;-81
2021/12/24 13:57:03;;;;;;;11.97;10.67;;;;;;;;;;4940580;29;20206;-81
2021/12/24 13:59:31;;;;;;;16.63;13.47;;;;;;;;;;4944501;29;20583;-81
2021/12/24 14:02:00;;;;;;;9.03;8.10;;;;;;;;;;4938756;29;20359;-81
2021/12/24 14:04:27;;;;;;;11.57;8.17;;;;;;;;;;4936374;29;20237;-81
2021/12/24 14:06:58;;;;;;;11.37;9.40;;;;;;;;;;4936139;29;20297;-81
2021/12/24 14:09:29;;;;;;;8.63;7.80;;;;;;;;;;4966878;28;20212;-81
2021/12/24 14:11:59;;;;;;;13.17;11.77;;;;;;;;;;4945102;29;20212;-84
2021/12/24 14:14:42;;;;;;;9.23;7.50;;;;;;;;;;4936652;29;20676;-83
2021/12/24 14:17:34;;;;;;;17.77;12.20;;;;;;;;;;4942040;28;20272;-82
2021/12/24 14:20:11;;;;;;;12.77;9.80;;;;;;;;;;4973975;28;20197;-82
2021/12/24 14:22:40;;;;;;;21.73;15.60;;;;;;;;;;4973853;28;20275;-82
2021/12/24 14:25:11;;;;;;;42.70;28.27;;;;;;;;;;4973998;28;20280;-82
2021/12/24 14:27:41;;;;;;;39.83;27.30;;;;;;;;;;4973980;28;20189;-82
2021/12/24 14:30:11;;;;;;;67.53;42.63;;;;;;;;;;4973670;28;20197;-82
2021/12/24 14:32:39;;;;;;;119.57;67.23;;;;;;;;;;4972849;28;20260;-82
2021/12/24 14:35:15;;;;;;;88.63;50.40;;;;;;;;;;4954516;28;20210;-82
2021/12/24 14:37:44;;;;;;;161.43;87.97;;;;;;;;;;4954457;28;20750;-82
2021/12/24 14:40:14;;;;;;;107.00;61.17;;;;;;;;;;4948422;28;20254;-82
2021/12/24 14:42:46;;;;;;;34.63;23.13;;;;;;;;;;4973289;28;20201;-82
2021/12/24 14:45:19;;;;;;;65.13;37.57;;;;;;;;;;4973598;28;20704;-82
2021/12/24 14:47:58;;;;;;;139.27;83.00;;;;;;;;;;4973801;28;20657;-82
2021/12/24 14:50:25;;;;;;;193.00;109.80;;;;;;;;;;4959674;28;20197;-82
2021/12/24 14:53:11;;;;;;;73.80;46.50;;;;;;;;;;4948032;28;20198;-83
2021/12/24 14:55:43;;;;;;;22.77;16.77;;;;;;;;;;4950257;28;20190;-83
2021/12/24 14:58:12;;;;;;;16.30;14.33;;;;;;;;;;4953747;28;20193;-83
2021/12/24 15:00:42;;;;;;;14.33;10.57;;;;;;;;;;4974466;28;20237;-83
2021/12/24 15:03:12;;;;;;;21.03;13.23;;;;;;;;;;4974363;28;20197;-83
2021/12/24 15:05:42;;;;;;;67.83;33.60;;;;;;;;;;4974502;28;20228;-82
2021/12/24 15:08:21;;;;;;;42.53;22.10;;;;;;;;;;4974192;28;20256;-81
2021/12/24 15:11:06;;;;;;;75.50;43.30;;;;;;;;;;4974538;28;20189;-81
2021/12/24 15:13:35;;;;;;;102.40;73.73;;;;;;;;;;4974184;28;20203;-82
2021/12/24 15:16:03;;;;;;;122.00;92.97;;;;;;;;;;4959692;28;20213;-83
2021/12/24 15:18:31;;;;;;;207.27;134.13;;;;;;;;;;4955081;29;20205;-82
2021/12/24 15:21:00;;;;;;;268.27;198.77;;;;;;;;;;4954541;28;20711;-82
2021/12/24 15:23:27;;;;;;;148.13;105.23;;;;;;;;;;4948066;29;20197;-82
2021/12/24 15:25:55;;;;;;;108.90;76.07;;;;;;;;;;4951034;28;20261;-82
2021/12/24 15:28:23;;;;;;;54.43;40.80;;;;;;;;;;4938715;29;20238;-83
2021/12/24 15:30:53;;;;;;;15.90;13.23;;;;;;;;;;4937175;29;20237;-84
2021/12/24 15:33:22;;;;;;;34.30;24.60;;;;;;;;;;4947104;29;20933;-83
2021/12/24 15:35:52;;;;;;;50.97;37.03;;;;;;;;;;4949360;28;20206;-84
2021/12/24 15:38:19;;;;;;;42.17;29.80;;;;;;;;;;4950771;28;20773;-83
2021/12/24 15:40:47;;;;;;;41.37;31.97;;;;;;;;;;4951596;28;20234;-83
2021/12/24 15:43:16;;;;;;;38.20;28.33;;;;;;;;;;4954622;28;20212;-81
2021/12/24 15:45:44;;;;;;;37.50;28.10;;;;;;;;;;4954517;28;20602;-82
2021/12/24 15:48:13;;;;;;;19.67;15.27;;;;;;;;;;4954273;29;20206;-82
2021/12/24 15:50:40;;;;;;;17.90;12.80;;;;;;;;;;4954268;29;20205;-82
2021/12/24 15:53:08;;;;;;;18.30;14.73;;;;;;;;;;4953888;28;20198;-84
2021/12/24 15:55:36;;;;;;;16.30;9.90;;;;;;;;;;4956547;28;20225;-82
2021/12/24 15:58:05;;;;;;;12.90;9.07;;;;;;;;;;4973420;28;20636;-81
2021/12/24 16:00:33;;;;;;;20.23;15.17;;;;;;;;;;4973421;28;20264;-82
2021/12/24 16:03:00;;;;;;;11.67;8.73;;;;;;;;;;4952745;28;20208;-81
2021/12/24 16:05:29;;;;;;;10.43;8.33;;;;;;;;;;4973129;28;20701;-83
2021/12/24 16:07:56;;;;;;;11.47;10.10;;;;;;;;;;4973262;28;20197;-83
2021/12/24 16:10:24;;;;;;;31.30;22.63;;;;;;;;;;4957698;28;20205;-83
2021/12/24 16:12:52;;;;;;;9.80;7.67;;;;;;;;;;4953141;29;20197;-82
2021/12/24 16:15:19;;;;;;;55.73;34.07;;;;;;;;;;4952048;29;20201;-82
2021/12/24 16:17:47;;;;;;;79.23;49.77;;;;;;;;;;4955536;28;20639;-82
2021/12/24 16:20:14;;;;;;;382.13;242.90;;;;;;;;;;4954751;28;20234;-82
2021/12/24 16:22:43;;;;;;;140.77;95.60;;;;;;;;;;4934309;29;20234;-82
2021/12/24 16:25:12;;;;;;;124.47;92.33;;;;;;;;;;4960713;28;20284;-82
2021/12/24 16:27:40;;;;;;;103.97;79.30;;;;;;;;;;4972579;28;20196;-82
2021/12/24 16:30:10;;;;;;;92.47;65.57;;;;;;;;;;4972923;28;20211;-83
2021/12/24 16:32:38;;;;;;;52.43;42.07;;;;;;;;;;4960251;28;20219;-82
2021/12/24 16:35:09;;;;;;;73.73;51.37;;;;;;;;;;4953797;29;20198;-83
2021/12/24 16:37:36;;;;;;;48.53;35.20;;;;;;;;;;4953638;29;20240;-82
2021/12/24 16:40:08;;;;;;;39.40;27.87;;;;;;;;;;4953052;28;20201;-81
2021/12/24 16:42:35;;;;;;;39.50;27.20;;;;;;;;;;4973513;28;20280;-82
2021/12/24 16:45:03;;;;;;;20.80;18.00;;;;;;;;;;4945847;28;20209;-82
2021/12/24 16:47:30;;;;;;;31.10;27.80;;;;;;;;;;4944026;28;20201;-83
2021/12/24 16:49:57;;;;;;;61.60;41.73;;;;;;;;;;4972065;28;20197;-83
2021/12/24 16:52:25;;;;;;;26.43;20.10;;;;;;;;;;4971241;28;20232;-82
2021/12/24 16:54:52;;;;;;;20.27;17.53;;;;;;;;;;4969377;28;20663;-82
2021/12/24 16:57:21;;;;;;;16.43;11.97;;;;;;;;;;4953317;28;20205;-83
2021/12/24 16:59:48;;;;;;;172.00;106.83;;;;;;;;;;4963040;28;20733;-83
2021/12/24 17:02:17;;;;;;;30.00;25.23;;;;;;;;;;4973180;28;20205;-83
2021/12/24 17:04:46;;;;;;;12.77;10.97;;;;;;;;;;4974456;28;20712;-83
2021/12/24 17:07:13;;;;;;;12.90;10.40;;;;;;;;;;4976476;28;20320;-82
2021/12/24 17:09:42;;;;;;;12.37;8.90;;;;;;;;;;4976795;28;20256;-83
2021/12/24 17:12:11;;;;;;;8.13;7.30;;;;;;;;;;4976363;28;20193;-83
2021/12/24 17:14:42;;;;;;;58.23;45.53;;;;;;;;;;4976413;28;20241;-83
2021/12/24 17:17:10;;;;;;;87.80;55.30;;;;;;;;;;4961494;28;20191;-82
2021/12/24 17:19:37;;;;;;;32.87;22.30;;;;;;;;;;4957041;29;20202;-82
2021/12/24 17:22:05;;;;;;;60.20;41.53;;;;;;;;;;4956998;29;20237;-82
2021/12/24 17:24:33;;;;;;;55.50;42.33;;;;;;;;;;4956810;29;20284;-82
2021/12/24 17:27:04;;;;;;;106.00;80.17;;;;;;;;;;4956904;28;20265;-82
2021/12/24 17:29:32;;;;;;;97.47;72.00;;;;;;;;;;4957348;29;20305;-83
2021/12/24 17:32:00;;;;;;;66.43;45.53;;;;;;;;;;4957000;29;20230;-82
2021/12/24 17:34:28;;;;;;;62.20;42.67;;;;;;;;;;4956460;29;20652;-82
2021/12/24 17:36:55;;;;;;;74.50;48.27;;;;;;;;;;4950869;28;20226;-83
2021/12/24 17:39:22;;;;;;;91.70;58.07;;;;;;;;;;4937764;29;20198;-83
2021/12/24 17:41:50;;;;;;;86.13;57.03;;;;;;;;;;4951565;28;20202;-81
2021/12/24 17:44:17;;;;;;;61.73;41.90;;;;;;;;;;4951233;28;20290;-82
2021/12/24 17:46:45;;;;;;;37.47;28.87;;;;;;;;;;4953697;28;20214;-81
2021/12/24 17:49:14;;;;;;;42.43;31.00;;;;;;;;;;4940193;29;20581;-80
2021/12/24 17:51:41;;;;;;;30.63;24.30;;;;;;;;;;4952168;28;20209;-81
2021/12/24 17:54:09;;;;;;;24.80;21.30;;;;;;;;;;4950441;28;20694;-82
2021/12/24 17:56:37;;;;;;;40.37;31.77;;;;;;;;;;4946699;29;20229;-82
2021/12/24 17:59:05;;;;;;;83.47;54.30;;;;;;;;;;4950900;28;20248;-82
2021/12/24 18:01:32;;;;;;;63.43;44.07;;;;;;;;;;4955705;28;20268;-83
2021/12/24 18:03:59;;;;;;;22.27;17.50;;;;;;;;;;4937966;29;20288;-82
2021/12/24 18:06:28;;;;;;;17.27;13.17;;;;;;;;;;4950822;28;20218;-82
2021/12/24 18:08:56;;;;;;;10.57;8.00;;;;;;;;;;4954442;28;20252;-83
2021/12/24 18:11:24;;;;;;;8.73;7.53;;;;;;;;;;4944800;29;20199;-82
2021/12/24 18:13:51;;;;;;;8.60;7.03;;;;;;;;;;4937230;29;20225;-82
2021/12/24 18:16:19;;;;;;;9.30;7.50;;;;;;;;;;4959329;28;20190;-82
2021/12/24 18:18:47;;;;;;;20.57;14.50;;;;;;;;;;4954689;29;20234;-83
2021/12/24 18:21:14;;;;;;;59.33;31.47;;;;;;;;;;4955563;29;20245;-82
2021/12/24 18:23:43;;;;;;;124.27;57.63;;;;;;;;;;4948257;28;20197;-81
2021/12/24 18:26:13;;;;;;;63.60;46.77;;;;;;;;;;4954270;28;20308;-81
2021/12/24 18:28:40;;;;;;;36.70;31.97;;;;;;;;;;4950285;28;20198;-81
2021/12/24 18:31:08;;;;;;;64.73;42.43;;;;;;;;;;4951748;28;20206;-81
2021/12/24 18:33:35;;;;;;;50.20;33.83;;;;;;;;;;4955746;29;20297;-82
2021/12/24 18:36:02;;;;;;;100.30;59.50;;;;;;;;;;4955670;29;20293;-82
2021/12/24 18:38:31;;;;;;;98.43;56.40;;;;;;;;;;4955895;29;20233;-83
2021/12/24 18:40:59;;;;;;;83.60;49.07;;;;;;;;;;4962930;28;20197;-81
2021/12/24 18:43:29;;;;;;;56.60;36.70;;;;;;;;;;4974863;28;20201;-82
2021/12/24 18:45:57;;;;;;;37.07;25.00;;;;;;;;;;4974676;28;20316;-82
2021/12/24 18:48:24;;;;;;;40.33;30.97;;;;;;;;;;4974986;28;20631;-82
2021/12/24 18:50:53;;;;;;;83.83;50.93;;;;;;;;;;4974888;28;20666;-82